Terminal Aerodrome Forecast
Issued by NWS Duluth, MN

Home | Current Version | Previous Version | Text Only | Print | Product List | Glossary On
Versions: 1 2 3 4 5 6 7 8 9 10 11 12 13 14 15 16 17 18 19 20 21 22 23 24 25 26
000
FTUS43 KDLH 011300 AAA
TAFDLH
TAF AMD
KDLH 011330Z 0114/0212 01010KT P6SM SCT019 BKN130
      TEMPO 0114/0116 6SM -SN BKN019
     FM011600 01009KT P6SM SCT020 BKN140
     FM011900 01008KT P6SM SCT020
     FM020900 VRB04KT P6SM SCT150=

USA.gov is the U.S. government's official web portal to all federal, state and local government web resources and services.